sensor_id;sensor_type;location;lat;lon;timestamp;P1;durP1;ratioP1;P2;durP2;ratioP2
52554;SDS011;38455;52.710;6.502;2024-01-30T00:01:37;23.90;;;16.23;;
52554;SDS011;38455;52.710;6.502;2024-01-30T00:04:03;23.83;;;15.82;;
52554;SDS011;38455;52.710;6.502;2024-01-30T00:06:28;25.45;;;17.00;;
52554;SDS011;38455;52.710;6.502;2024-01-30T00:08:54;27.27;;;16.35;;
52554;SDS011;38455;52.710;6.502;2024-01-30T00:11:20;25.73;;;16.95;;
52554;SDS011;38455;52.710;6.502;2024-01-30T00:13:46;31.20;;;19.55;;
52554;SDS011;38455;52.710;6.502;2024-01-30T00:16:20;26.40;;;16.75;;
52554;SDS011;38455;52.710;6.502;2024-01-30T00:18:47;32.72;;;17.15;;
52554;SDS011;38455;52.710;6.502;2024-01-30T00:21:13;27.30;;;17.17;;
52554;SDS011;38455;52.710;6.502;2024-01-30T00:23:39;27.15;;;17.98;;
52554;SDS011;38455;52.710;6.502;2024-01-30T00:26:04;27.30;;;17.48;;
52554;SDS011;38455;52.710;6.502;2024-01-30T00:28:31;25.08;;;15.30;;
52554;SDS011;38455;52.710;6.502;2024-01-30T00:30:56;21.08;;;14.73;;
52554;SDS011;38455;52.710;6.502;2024-01-30T00:33:22;22.55;;;14.52;;
52554;SDS011;38455;52.710;6.502;2024-01-30T00:35:48;28.48;;;16.60;;
52554;SDS011;38455;52.710;6.502;2024-01-30T00:38:13;23.55;;;15.73;;
52554;SDS011;38455;52.710;6.502;2024-01-30T00:40:39;30.17;;;17.10;;
52554;SDS011;38455;52.710;6.502;2024-01-30T00:43:05;32.47;;;19.20;;
52554;SDS011;38455;52.710;6.502;2024-01-30T00:45:30;25.02;;;15.93;;
52554;SDS011;38455;52.710;6.502;2024-01-30T00:47:56;33.60;;;17.58;;
52554;SDS011;38455;52.710;6.502;2024-01-30T00:50:22;29.05;;;16.98;;
52554;SDS011;38455;52.710;6.502;2024-01-30T00:52:47;28.92;;;17.80;;
52554;SDS011;38455;52.710;6.502;2024-01-30T00:55:13;31.10;;;18.05;;
52554;SDS011;38455;52.710;6.502;2024-01-30T00:57:39;24.88;;;15.95;;
52554;SDS011;38455;52.710;6.502;2024-01-30T01:00:05;26.73;;;16.08;;
52554;SDS011;38455;52.710;6.502;2024-01-30T01:02:34;22.65;;;15.60;;
52554;SDS011;38455;52.710;6.502;2024-01-30T01:05:00;24.17;;;16.00;;
52554;SDS011;38455;52.710;6.502;2024-01-30T01:07:25;23.33;;;15.25;;
52554;SDS011;38455;52.710;6.502;2024-01-30T01:09:51;31.85;;;16.77;;
52554;SDS011;38455;52.710;6.502;2024-01-30T01:12:17;23.63;;;15.52;;
52554;SDS011;38455;52.710;6.502;2024-01-30T01:14:42;25.88;;;15.98;;
52554;SDS011;38455;52.710;6.502;2024-01-30T01:17:08;31.48;;;18.02;;
52554;SDS011;38455;52.710;6.502;2024-01-30T01:19:34;23.38;;;15.73;;
52554;SDS011;38455;52.710;6.502;2024-01-30T01:21:59;32.35;;;17.73;;
52554;SDS011;38455;52.710;6.502;2024-01-30T01:24:25;30.65;;;18.10;;
52554;SDS011;38455;52.710;6.502;2024-01-30T01:26:51;29.45;;;17.50;;
52554;SDS011;38455;52.710;6.502;2024-01-30T01:29:16;30.35;;;17.67;;
52554;SDS011;38455;52.710;6.502;2024-01-30T01:31:42;27.63;;;17.98;;
52554;SDS011;38455;52.710;6.502;2024-01-30T01:34:11;30.25;;;18.27;;
52554;SDS011;38455;52.710;6.502;2024-01-30T01:36:37;29.40;;;17.45;;
52554;SDS011;38455;52.710;6.502;2024-01-30T01:39:04;30.95;;;18.10;;
52554;SDS011;38455;52.710;6.502;2024-01-30T01:41:30;31.25;;;17.48;;
52554;SDS011;38455;52.710;6.502;2024-01-30T01:43:59;30.40;;;17.35;;
52554;SDS011;38455;52.710;6.502;2024-01-30T01:46:28;30.92;;;18.00;;
52554;SDS011;38455;52.710;6.502;2024-01-30T01:48:57;27.35;;;18.23;;
52554;SDS011;38455;52.710;6.502;2024-01-30T01:51:24;33.08;;;16.42;;
52554;SDS011;38455;52.710;6.502;2024-01-30T01:53:52;30.02;;;17.77;;
52554;SDS011;38455;52.710;6.502;2024-01-30T01:56:20;26.58;;;17.27;;
52554;SDS011;38455;52.710;6.502;2024-01-30T01:58:47;30.33;;;17.40;;
52554;SDS011;38455;52.710;6.502;2024-01-30T02:01:14;29.88;;;17.90;;
52554;SDS011;38455;52.710;6.502;2024-01-30T02:03:43;29.45;;;16.95;;
52554;SDS011;38455;52.710;6.502;2024-01-30T02:06:10;29.50;;;18.13;;
52554;SDS011;38455;52.710;6.502;2024-01-30T02:08:37;30.73;;;18.92;;
52554;SDS011;38455;52.710;6.502;2024-01-30T02:11:03;30.55;;;18.17;;
52554;SDS011;38455;52.710;6.502;2024-01-30T02:13:29;27.92;;;17.50;;
52554;SDS011;38455;52.710;6.502;2024-01-30T02:15:55;27.00;;;17.45;;
52554;SDS011;38455;52.710;6.502;2024-01-30T02:18:20;27.05;;;17.63;;
52554;SDS011;38455;52.710;6.502;2024-01-30T02:20:46;25.52;;;15.98;;
52554;SDS011;38455;52.710;6.502;2024-01-30T02:23:12;31.98;;;18.08;;
52554;SDS011;38455;52.710;6.502;2024-01-30T02:25:42;22.77;;;16.02;;
52554;SDS011;38455;52.710;6.502;2024-01-30T02:28:11;33.03;;;19.42;;
52554;SDS011;38455;52.710;6.502;2024-01-30T02:30:42;29.33;;;17.67;;
52554;SDS011;38455;52.710;6.502;2024-01-30T02:33:08;28.63;;;18.10;;
52554;SDS011;38455;52.710;6.502;2024-01-30T02:35:33;27.35;;;17.58;;
52554;SDS011;38455;52.710;6.502;2024-01-30T02:38:00;28.90;;;17.65;;
52554;SDS011;38455;52.710;6.502;2024-01-30T02:40:25;27.13;;;18.40;;
52554;SDS011;38455;52.710;6.502;2024-01-30T02:42:51;28.33;;;17.42;;
52554;SDS011;38455;52.710;6.502;2024-01-30T02:45:17;27.98;;;18.63;;
52554;SDS011;38455;52.710;6.502;2024-01-30T02:47:43;27.63;;;16.70;;
52554;SDS011;38455;52.710;6.502;2024-01-30T02:50:08;30.58;;;17.50;;
52554;SDS011;38455;52.710;6.502;2024-01-30T02:52:34;33.63;;;17.48;;
52554;SDS011;38455;52.710;6.502;2024-01-30T02:55:00;33.90;;;18.02;;
52554;SDS011;38455;52.710;6.502;2024-01-30T02:57:27;30.08;;;17.95;;
52554;SDS011;38455;52.710;6.502;2024-01-30T02:59:53;28.38;;;17.17;;
52554;SDS011;38455;52.710;6.502;2024-01-30T03:02:18;28.00;;;17.88;;
52554;SDS011;38455;52.710;6.502;2024-01-30T03:04:45;32.22;;;18.08;;
52554;SDS011;38455;52.710;6.502;2024-01-30T03:07:11;25.33;;;17.48;;
52554;SDS011;38455;52.710;6.502;2024-01-30T03:09:36;30.75;;;17.27;;
52554;SDS011;38455;52.710;6.502;2024-01-30T03:12:03;29.08;;;16.70;;
52554;SDS011;38455;52.710;6.502;2024-01-30T03:14:32;27.58;;;17.25;;
52554;SDS011;38455;52.710;6.502;2024-01-30T03:16:58;28.30;;;17.02;;
52554;SDS011;38455;52.710;6.502;2024-01-30T03:19:23;29.15;;;16.42;;
52554;SDS011;38455;52.710;6.502;2024-01-30T03:21:49;31.83;;;17.40;;
52554;SDS011;38455;52.710;6.502;2024-01-30T03:24:16;24.92;;;15.27;;
52554;SDS011;38455;52.710;6.502;2024-01-30T03:26:42;28.48;;;16.95;;
52554;SDS011;38455;52.710;6.502;2024-01-30T03:29:08;26.10;;;16.08;;
52554;SDS011;38455;52.710;6.502;2024-01-30T03:31:34;25.40;;;15.55;;
52554;SDS011;38455;52.710;6.502;2024-01-30T03:34:00;27.98;;;16.38;;
52554;SDS011;38455;52.710;6.502;2024-01-30T03:36:26;27.33;;;17.33;;
52554;SDS011;38455;52.710;6.502;2024-01-30T03:38:52;29.00;;;16.83;;
52554;SDS011;38455;52.710;6.502;2024-01-30T03:41:18;28.73;;;17.25;;
52554;SDS011;38455;52.710;6.502;2024-01-30T03:43:44;29.80;;;17.45;;
52554;SDS011;38455;52.710;6.502;2024-01-30T03:46:11;27.20;;;17.25;;
52554;SDS011;38455;52.710;6.502;2024-01-30T03:48:37;30.17;;;16.70;;
52554;SDS011;38455;52.710;6.502;2024-01-30T03:51:03;28.73;;;16.55;;
52554;SDS011;38455;52.710;6.502;2024-01-30T03:53:29;27.02;;;16.50;;
52554;SDS011;38455;52.710;6.502;2024-01-30T03:55:55;25.45;;;17.23;;
52554;SDS011;38455;52.710;6.502;2024-01-30T03:58:21;29.80;;;16.83;;
52554;SDS011;38455;52.710;6.502;2024-01-30T04:00:46;34.13;;;16.17;;
52554;SDS011;38455;52.710;6.502;2024-01-30T04:03:12;34.85;;;17.70;;
52554;SDS011;38455;52.710;6.502;2024-01-30T04:05:40;28.13;;;16.73;;
52554;SDS011;38455;52.710;6.502;2024-01-30T04:08:06;26.85;;;17.05;;
52554;SDS011;38455;52.710;6.502;2024-01-30T04:10:33;32.85;;;17.15;;
52554;SDS011;38455;52.710;6.502;2024-01-30T04:12:58;26.58;;;15.77;;
52554;SDS011;38455;52.710;6.502;2024-01-30T04:15:25;27.25;;;16.90;;
52554;SDS011;38455;52.710;6.502;2024-01-30T04:17:50;26.95;;;16.38;;
52554;SDS011;38455;52.710;6.502;2024-01-30T04:20:17;25.70;;;15.68;;
52554;SDS011;38455;52.710;6.502;2024-01-30T04:22:46;27.45;;;16.73;;
52554;SDS011;38455;52.710;6.502;2024-01-30T04:25:12;27.50;;;16.67;;
52554;SDS011;38455;52.710;6.502;2024-01-30T04:27:38;25.02;;;15.88;;
52554;SDS011;38455;52.710;6.502;2024-01-30T04:30:04;31.95;;;17.05;;
52554;SDS011;38455;52.710;6.502;2024-01-30T04:32:31;26.63;;;16.23;;
52554;SDS011;38455;52.710;6.502;2024-01-30T04:34:57;23.83;;;15.27;;
52554;SDS011;38455;52.710;6.502;2024-01-30T04:37:23;24.35;;;15.35;;
52554;SDS011;38455;52.710;6.502;2024-01-30T04:39:48;20.90;;;15.00;;
52554;SDS011;38455;52.710;6.502;2024-01-30T04:42:14;23.90;;;15.68;;
52554;SDS011;38455;52.710;6.502;2024-01-30T04:44:40;24.95;;;15.38;;
52554;SDS011;38455;52.710;6.502;2024-01-30T04:47:05;23.95;;;15.75;;
52554;SDS011;38455;52.710;6.502;2024-01-30T04:49:34;22.35;;;15.35;;
52554;SDS011;38455;52.710;6.502;2024-01-30T04:51:59;25.70;;;15.40;;
52554;SDS011;38455;52.710;6.502;2024-01-30T04:54:25;24.23;;;14.75;;
52554;SDS011;38455;52.710;6.502;2024-01-30T04:56:51;27.13;;;15.57;;
52554;SDS011;38455;52.710;6.502;2024-01-30T04:59:16;22.88;;;14.15;;
52554;SDS011;38455;52.710;6.502;2024-01-30T05:01:42;25.98;;;15.15;;
52554;SDS011;38455;52.710;6.502;2024-01-30T05:04:08;24.35;;;14.65;;
52554;SDS011;38455;52.710;6.502;2024-01-30T05:06:35;25.75;;;14.88;;
52554;SDS011;38455;52.710;6.502;2024-01-30T05:09:00;23.92;;;14.93;;
52554;SDS011;38455;52.710;6.502;2024-01-30T05:11:26;24.92;;;14.68;;
52554;SDS011;38455;52.710;6.502;2024-01-30T05:13:51;27.08;;;14.48;;
52554;SDS011;38455;52.710;6.502;2024-01-30T05:16:17;27.35;;;16.15;;
52554;SDS011;38455;52.710;6.502;2024-01-30T05:18:43;24.45;;;14.45;;
52554;SDS011;38455;52.710;6.502;2024-01-30T05:21:10;27.15;;;15.57;;
52554;SDS011;38455;52.710;6.502;2024-01-30T05:23:35;22.08;;;13.80;;
52554;SDS011;38455;52.710;6.502;2024-01-30T05:26:01;25.40;;;14.90;;
52554;SDS011;38455;52.710;6.502;2024-01-30T05:28:28;22.45;;;14.85;;
52554;SDS011;38455;52.710;6.502;2024-01-30T05:30:55;31.13;;;15.10;;
52554;SDS011;38455;52.710;6.502;2024-01-30T05:33:21;24.80;;;15.73;;
52554;SDS011;38455;52.710;6.502;2024-01-30T05:35:47;24.60;;;15.57;;
52554;SDS011;38455;52.710;6.502;2024-01-30T05:38:13;23.67;;;14.50;;
52554;SDS011;38455;52.710;6.502;2024-01-30T05:40:41;25.35;;;14.70;;
52554;SDS011;38455;52.710;6.502;2024-01-30T05:43:06;24.73;;;15.23;;
52554;SDS011;38455;52.710;6.502;2024-01-30T05:45:33;23.35;;;14.88;;
52554;SDS011;38455;52.710;6.502;2024-01-30T05:48:00;28.58;;;15.32;;
52554;SDS011;38455;52.710;6.502;2024-01-30T05:50:26;24.75;;;15.73;;
52554;SDS011;38455;52.710;6.502;2024-01-30T05:52:52;26.98;;;15.38;;
52554;SDS011;38455;52.710;6.502;2024-01-30T05:55:18;26.63;;;15.80;;
52554;SDS011;38455;52.710;6.502;2024-01-30T05:57:43;26.58;;;16.00;;
52554;SDS011;38455;52.710;6.502;2024-01-30T06:00:09;26.20;;;15.18;;
52554;SDS011;38455;52.710;6.502;2024-01-30T06:02:35;27.15;;;15.25;;
52554;SDS011;38455;52.710;6.502;2024-01-30T06:05:01;25.42;;;15.90;;
52554;SDS011;38455;52.710;6.502;2024-01-30T06:07:27;23.02;;;14.35;;
52554;SDS011;38455;52.710;6.502;2024-01-30T06:09:53;25.27;;;14.98;;
52554;SDS011;38455;52.710;6.502;2024-01-30T06:12:18;24.60;;;15.18;;
52554;SDS011;38455;52.710;6.502;2024-01-30T06:14:44;21.05;;;14.05;;
52554;SDS011;38455;52.710;6.502;2024-01-30T06:17:10;26.42;;;13.55;;
52554;SDS011;38455;52.710;6.502;2024-01-30T06:19:37;23.10;;;13.75;;
52554;SDS011;38455;52.710;6.502;2024-01-30T06:22:06;22.02;;;14.02;;
52554;SDS011;38455;52.710;6.502;2024-01-30T06:24:31;20.95;;;12.98;;
52554;SDS011;38455;52.710;6.502;2024-01-30T06:26:58;23.95;;;12.73;;
52554;SDS011;38455;52.710;6.502;2024-01-30T06:29:24;23.35;;;13.43;;
52554;SDS011;38455;52.710;6.502;2024-01-30T06:31:51;22.55;;;13.02;;
52554;SDS011;38455;52.710;6.502;2024-01-30T06:34:17;26.00;;;13.15;;
52554;SDS011;38455;52.710;6.502;2024-01-30T06:36:43;22.58;;;12.80;;
52554;SDS011;38455;52.710;6.502;2024-01-30T06:39:08;21.98;;;12.90;;
52554;SDS011;38455;52.710;6.502;2024-01-30T06:41:34;24.05;;;12.55;;
52554;SDS011;38455;52.710;6.502;2024-01-30T06:44:01;20.70;;;13.75;;
52554;SDS011;38455;52.710;6.502;2024-01-30T06:46:29;21.70;;;12.95;;
52554;SDS011;38455;52.710;6.502;2024-01-30T06:48:54;22.60;;;13.20;;
52554;SDS011;38455;52.710;6.502;2024-01-30T06:51:20;21.52;;;13.25;;
52554;SDS011;38455;52.710;6.502;2024-01-30T06:53:46;20.27;;;12.50;;
52554;SDS011;38455;52.710;6.502;2024-01-30T06:56:11;20.02;;;13.07;;
52554;SDS011;38455;52.710;6.502;2024-01-30T06:58:37;20.05;;;13.05;;
52554;SDS011;38455;52.710;6.502;2024-01-30T07:01:03;20.80;;;12.40;;
52554;SDS011;38455;52.710;6.502;2024-01-30T07:03:28;20.02;;;12.05;;
52554;SDS011;38455;52.710;6.502;2024-01-30T07:05:54;24.42;;;12.98;;
52554;SDS011;38455;52.710;6.502;2024-01-30T07:08:20;20.77;;;12.32;;
52554;SDS011;38455;52.710;6.502;2024-01-30T07:10:46;20.77;;;12.65;;
52554;SDS011;38455;52.710;6.502;2024-01-30T07:13:12;18.58;;;12.57;;
52554;SDS011;38455;52.710;6.502;2024-01-30T07:15:38;19.33;;;12.88;;
52554;SDS011;38455;52.710;6.502;2024-01-30T07:18:05;21.40;;;12.98;;
52554;SDS011;38455;52.710;6.502;2024-01-30T07:20:31;20.85;;;12.85;;
52554;SDS011;38455;52.710;6.502;2024-01-30T07:22:59;22.65;;;13.48;;
52554;SDS011;38455;52.710;6.502;2024-01-30T07:25:25;19.58;;;12.18;;
52554;SDS011;38455;52.710;6.502;2024-01-30T07:27:55;18.23;;;11.68;;
52554;SDS011;38455;52.710;6.502;2024-01-30T07:30:21;26.23;;;12.90;;
52554;SDS011;38455;52.710;6.502;2024-01-30T07:32:48;18.80;;;12.43;;
52554;SDS011;38455;52.710;6.502;2024-01-30T07:35:14;21.95;;;12.90;;
52554;SDS011;38455;52.710;6.502;2024-01-30T07:37:40;18.40;;;12.27;;
52554;SDS011;38455;52.710;6.502;2024-01-30T07:40:06;21.45;;;12.10;;
52554;SDS011;38455;52.710;6.502;2024-01-30T07:42:32;17.23;;;12.00;;
52554;SDS011;38455;52.710;6.502;2024-01-30T07:44:58;19.92;;;12.63;;
52554;SDS011;38455;52.710;6.502;2024-01-30T07:47:25;20.38;;;12.27;;
52554;SDS011;38455;52.710;6.502;2024-01-30T07:49:50;20.13;;;12.18;;
52554;SDS011;38455;52.710;6.502;2024-01-30T07:52:16;20.02;;;10.93;;
52554;SDS011;38455;52.710;6.502;2024-01-30T07:54:48;20.63;;;12.23;;
52554;SDS011;38455;52.710;6.502;2024-01-30T07:57:14;18.83;;;12.10;;
52554;SDS011;38455;52.710;6.502;2024-01-30T07:59:43;18.70;;;10.95;;
52554;SDS011;38455;52.710;6.502;2024-01-30T08:02:09;17.83;;;11.20;;
52554;SDS011;38455;52.710;6.502;2024-01-30T08:04:36;21.70;;;12.15;;
52554;SDS011;38455;52.710;6.502;2024-01-30T08:07:02;19.77;;;10.57;;
52554;SDS011;38455;52.710;6.502;2024-01-30T08:09:28;18.80;;;11.57;;
52554;SDS011;38455;52.710;6.502;2024-01-30T08:11:54;19.08;;;11.23;;
52554;SDS011;38455;52.710;6.502;2024-01-30T08:14:19;19.63;;;11.40;;
52554;SDS011;38455;52.710;6.502;2024-01-30T08:16:45;21.85;;;11.90;;
52554;SDS011;38455;52.710;6.502;2024-01-30T08:19:11;20.00;;;11.15;;
52554;SDS011;38455;52.710;6.502;2024-01-30T08:21:36;18.20;;;10.75;;
52554;SDS011;38455;52.710;6.502;2024-01-30T08:24:05;18.13;;;10.70;;
52554;SDS011;38455;52.710;6.502;2024-01-30T08:26:32;20.02;;;10.73;;
52554;SDS011;38455;52.710;6.502;2024-01-30T08:28:58;18.15;;;10.95;;
52554;SDS011;38455;52.710;6.502;2024-01-30T08:31:24;17.00;;;11.23;;
52554;SDS011;38455;52.710;6.502;2024-01-30T08:33:49;20.88;;;11.43;;
52554;SDS011;38455;52.710;6.502;2024-01-30T08:36:15;17.05;;;10.98;;
52554;SDS011;38455;52.710;6.502;2024-01-30T08:38:41;14.68;;;10.30;;
52554;SDS011;38455;52.710;6.502;2024-01-30T08:41:07;18.10;;;10.85;;
52554;SDS011;38455;52.710;6.502;2024-01-30T08:43:34;18.77;;;10.80;;
52554;SDS011;38455;52.710;6.502;2024-01-30T08:46:00;13.85;;;10.50;;
52554;SDS011;38455;52.710;6.502;2024-01-30T08:48:26;14.93;;;9.93;;
52554;SDS011;38455;52.710;6.502;2024-01-30T08:50:52;17.75;;;10.27;;
52554;SDS011;38455;52.710;6.502;2024-01-30T08:53:18;20.63;;;10.68;;
52554;SDS011;38455;52.710;6.502;2024-01-30T08:55:43;18.08;;;10.98;;
52554;SDS011;38455;52.710;6.502;2024-01-30T08:58:09;15.02;;;10.55;;
52554;SDS011;38455;52.710;6.502;2024-01-30T09:00:35;16.52;;;9.90;;
52554;SDS011;38455;52.710;6.502;2024-01-30T09:03:01;14.43;;;9.90;;
52554;SDS011;38455;52.710;6.502;2024-01-30T09:05:27;17.90;;;10.68;;
52554;SDS011;38455;52.710;6.502;2024-01-30T09:07:52;16.17;;;10.57;;
52554;SDS011;38455;52.710;6.502;2024-01-30T09:10:18;18.08;;;10.43;;
52554;SDS011;38455;52.710;6.502;2024-01-30T09:12:44;14.27;;;10.02;;
52554;SDS011;38455;52.710;6.502;2024-01-30T09:15:10;18.70;;;10.60;;
52554;SDS011;38455;52.710;6.502;2024-01-30T09:17:36;18.00;;;9.93;;
52554;SDS011;38455;52.710;6.502;2024-01-30T09:20:01;18.25;;;10.45;;
52554;SDS011;38455;52.710;6.502;2024-01-30T09:22:27;14.85;;;10.43;;
52554;SDS011;38455;52.710;6.502;2024-01-30T09:24:53;14.25;;;9.45;;
52554;SDS011;38455;52.710;6.502;2024-01-30T09:27:18;22.38;;;11.43;;
52554;SDS011;38455;52.710;6.502;2024-01-30T09:29:45;17.10;;;10.18;;
52554;SDS011;38455;52.710;6.502;2024-01-30T09:32:10;18.15;;;10.02;;
52554;SDS011;38455;52.710;6.502;2024-01-30T09:34:36;19.10;;;10.73;;
52554;SDS011;38455;52.710;6.502;2024-01-30T09:37:03;16.00;;;10.43;;
52554;SDS011;38455;52.710;6.502;2024-01-30T09:39:29;16.52;;;9.52;;
52554;SDS011;38455;52.710;6.502;2024-01-30T09:44:50;15.23;;;9.35;;
52554;SDS011;38455;52.710;6.502;2024-01-30T09:47:17;15.98;;;10.45;;
52554;SDS011;38455;52.710;6.502;2024-01-30T09:49:43;14.45;;;9.70;;
52554;SDS011;38455;52.710;6.502;2024-01-30T09:52:09;15.98;;;10.30;;
52554;SDS011;38455;52.710;6.502;2024-01-30T09:54:35;20.02;;;10.40;;
52554;SDS011;38455;52.710;6.502;2024-01-30T09:57:03;18.52;;;10.20;;
52554;SDS011;38455;52.710;6.502;2024-01-30T09:59:29;20.63;;;10.27;;
52554;SDS011;38455;52.710;6.502;2024-01-30T10:01:55;16.02;;;9.45;;
52554;SDS011;38455;52.710;6.502;2024-01-30T10:04:22;16.75;;;10.38;;
52554;SDS011;38455;52.710;6.502;2024-01-30T10:06:47;17.88;;;11.00;;
52554;SDS011;38455;52.710;6.502;2024-01-30T10:09:13;19.15;;;11.13;;
52554;SDS011;38455;52.710;6.502;2024-01-30T10:11:39;16.30;;;9.50;;
52554;SDS011;38455;52.710;6.502;2024-01-30T10:14:05;21.60;;;9.80;;
52554;SDS011;38455;52.710;6.502;2024-01-30T10:16:30;18.13;;;9.70;;
52554;SDS011;38455;52.710;6.502;2024-01-30T10:18:56;16.42;;;10.73;;
52554;SDS011;38455;52.710;6.502;2024-01-30T10:21:22;16.20;;;10.57;;
52554;SDS011;38455;52.710;6.502;2024-01-30T10:23:48;17.38;;;10.70;;
52554;SDS011;38455;52.710;6.502;2024-01-30T10:26:15;16.52;;;9.60;;
52554;SDS011;38455;52.710;6.502;2024-01-30T10:28:42;13.05;;;9.80;;
52554;SDS011;38455;52.710;6.502;2024-01-30T10:31:08;21.50;;;10.68;;
52554;SDS011;38455;52.710;6.502;2024-01-30T10:33:33;18.63;;;10.68;;
52554;SDS011;38455;52.710;6.502;2024-01-30T10:36:00;16.23;;;10.23;;
52554;SDS011;38455;52.710;6.502;2024-01-30T10:38:31;19.65;;;10.40;;
52554;SDS011;38455;52.710;6.502;2024-01-30T10:40:58;16.33;;;10.20;;
52554;SDS011;38455;52.710;6.502;2024-01-30T10:43:47;18.15;;;10.68;;
52554;SDS011;38455;52.710;6.502;2024-01-30T10:48:42;17.05;;;9.73;;
52554;SDS011;38455;52.710;6.502;2024-01-30T10:51:09;14.57;;;9.48;;
52554;SDS011;38455;52.710;6.502;2024-01-30T10:53:37;19.92;;;10.23;;
52554;SDS011;38455;52.710;6.502;2024-01-30T10:56:04;17.33;;;10.27;;
52554;SDS011;38455;52.710;6.502;2024-01-30T10:58:31;18.00;;;10.43;;
52554;SDS011;38455;52.710;6.502;2024-01-30T11:00:56;21.83;;;10.55;;
52554;SDS011;38455;52.710;6.502;2024-01-30T11:03:23;15.43;;;9.77;;
52554;SDS011;38455;52.710;6.502;2024-01-30T11:05:52;18.23;;;9.88;;
52554;SDS011;38455;52.710;6.502;2024-01-30T11:08:24;23.15;;;11.20;;
52554;SDS011;38455;52.710;6.502;2024-01-30T11:10:54;24.30;;;10.77;;
52554;SDS011;38455;52.710;6.502;2024-01-30T11:13:21;17.20;;;9.85;;
52554;SDS011;38455;52.710;6.502;2024-01-30T11:15:50;26.63;;;10.88;;
52554;SDS011;38455;52.710;6.502;2024-01-30T11:18:25;18.95;;;10.70;;
52554;SDS011;38455;52.710;6.502;2024-01-30T11:20:51;16.55;;;10.25;;
52554;SDS011;38455;52.710;6.502;2024-01-30T11:23:16;17.38;;;11.35;;
52554;SDS011;38455;52.710;6.502;2024-01-30T11:25:43;21.38;;;11.02;;
52554;SDS011;38455;52.710;6.502;2024-01-30T11:28:14;18.33;;;10.48;;
52554;SDS011;38455;52.710;6.502;2024-01-30T11:30:43;21.08;;;11.93;;
52554;SDS011;38455;52.710;6.502;2024-01-30T11:33:10;24.15;;;11.98;;
52554;SDS011;38455;52.710;6.502;2024-01-30T11:35:44;21.70;;;12.70;;
52554;SDS011;38455;52.710;6.502;2024-01-30T11:38:11;22.20;;;12.02;;
52554;SDS011;38455;52.710;6.502;2024-01-30T11:40:39;29.80;;;12.57;;
52554;SDS011;38455;52.710;6.502;2024-01-30T11:43:06;21.85;;;10.88;;
52554;SDS011;38455;52.710;6.502;2024-01-30T11:45:34;20.88;;;12.18;;
52554;SDS011;38455;52.710;6.502;2024-01-30T11:48:01;19.35;;;11.57;;
52554;SDS011;38455;52.710;6.502;2024-01-30T11:50:28;19.98;;;11.73;;
52554;SDS011;38455;52.710;6.502;2024-01-30T11:52:59;26.65;;;11.25;;
52554;SDS011;38455;52.710;6.502;2024-01-30T11:55:25;22.52;;;11.52;;
52554;SDS011;38455;52.710;6.502;2024-01-30T11:57:54;25.05;;;13.52;;
52554;SDS011;38455;52.710;6.502;2024-01-30T12:00:20;18.27;;;11.18;;
52554;SDS011;38455;52.710;6.502;2024-01-30T12:02:52;22.48;;;13.20;;
52554;SDS011;38455;52.710;6.502;2024-01-30T12:05:21;18.60;;;11.18;;
52554;SDS011;38455;52.710;6.502;2024-01-30T12:07:47;18.75;;;11.05;;
52554;SDS011;38455;52.710;6.502;2024-01-30T12:10:13;14.75;;;10.43;;
52554;SDS011;38455;52.710;6.502;2024-01-30T12:12:41;20.98;;;10.73;;
52554;SDS011;38455;52.710;6.502;2024-01-30T12:15:08;17.17;;;10.57;;
52554;SDS011;38455;52.710;6.502;2024-01-30T12:17:34;18.10;;;10.15;;
52554;SDS011;38455;52.710;6.502;2024-01-30T12:20:10;17.17;;;9.98;;
52554;SDS011;38455;52.710;6.502;2024-01-30T12:22:36;21.67;;;10.30;;
52554;SDS011;38455;52.710;6.502;2024-01-30T12:25:13;18.08;;;10.20;;
52554;SDS011;38455;52.710;6.502;2024-01-30T12:27:44;18.92;;;9.82;;
52554;SDS011;38455;52.710;6.502;2024-01-30T12:30:20;14.02;;;9.40;;
52554;SDS011;38455;52.710;6.502;2024-01-30T12:32:49;19.40;;;9.55;;
52554;SDS011;38455;52.710;6.502;2024-01-30T12:35:16;15.05;;;9.07;;
52554;SDS011;38455;52.710;6.502;2024-01-30T12:37:43;16.27;;;9.15;;
52554;SDS011;38455;52.710;6.502;2024-01-30T12:40:10;16.90;;;7.95;;
52554;SDS011;38455;52.710;6.502;2024-01-30T12:42:38;18.38;;;8.40;;
52554;SDS011;38455;52.710;6.502;2024-01-30T12:45:04;17.42;;;8.38;;
52554;SDS011;38455;52.710;6.502;2024-01-30T12:47:31;11.82;;;6.13;;
52554;SDS011;38455;52.710;6.502;2024-01-30T12:49:57;16.15;;;7.00;;
52554;SDS011;38455;52.710;6.502;2024-01-30T12:52:23;16.92;;;6.78;;
52554;SDS011;38455;52.710;6.502;2024-01-30T12:54:49;17.30;;;6.00;;
52554;SDS011;38455;52.710;6.502;2024-01-30T12:57:15;12.55;;;5.38;;
52554;SDS011;38455;52.710;6.502;2024-01-30T12:59:42;11.73;;;4.72;;
52554;SDS011;38455;52.710;6.502;2024-01-30T13:02:12;9.18;;;5.18;;
52554;SDS011;38455;52.710;6.502;2024-01-30T13:04:38;9.45;;;3.88;;
52554;SDS011;38455;52.710;6.502;2024-01-30T13:07:04;7.40;;;3.50;;
52554;SDS011;38455;52.710;6.502;2024-01-30T13:09:30;9.40;;;4.05;;
52554;SDS011;38455;52.710;6.502;2024-01-30T13:11:59;9.32;;;4.13;;
52554;SDS011;38455;52.710;6.502;2024-01-30T13:14:25;9.43;;;4.80;;
52554;SDS011;38455;52.710;6.502;2024-01-30T13:16:51;12.90;;;4.60;;
52554;SDS011;38455;52.710;6.502;2024-01-30T13:19:17;10.18;;;4.60;;
52554;SDS011;38455;52.710;6.502;2024-01-30T13:21:43;10.45;;;3.80;;
52554;SDS011;38455;52.710;6.502;2024-01-30T13:24:08;7.15;;;3.78;;
52554;SDS011;38455;52.710;6.502;2024-01-30T13:26:34;9.50;;;3.63;;
52554;SDS011;38455;52.710;6.502;2024-01-30T13:29:00;6.20;;;3.47;;
52554;SDS011;38455;52.710;6.502;2024-01-30T13:31:26;10.82;;;3.58;;
52554;SDS011;38455;52.710;6.502;2024-01-30T13:33:52;6.88;;;2.97;;
52554;SDS011;38455;52.710;6.502;2024-01-30T13:36:18;7.75;;;3.22;;
52554;SDS011;38455;52.710;6.502;2024-01-30T13:38:44;8.57;;;3.90;;
52554;SDS011;38455;52.710;6.502;2024-01-30T13:41:10;6.82;;;3.17;;
52554;SDS011;38455;52.710;6.502;2024-01-30T13:43:35;4.43;;;3.22;;
52554;SDS011;38455;52.710;6.502;2024-01-30T13:46:01;5.43;;;2.95;;
52554;SDS011;38455;52.710;6.502;2024-01-30T13:48:27;4.13;;;2.92;;
52554;SDS011;38455;52.710;6.502;2024-01-30T13:50:53;8.02;;;3.25;;
52554;SDS011;38455;52.710;6.502;2024-01-30T13:53:19;5.57;;;2.88;;
52554;SDS011;38455;52.710;6.502;2024-01-30T13:55:44;6.80;;;2.47;;
52554;SDS011;38455;52.710;6.502;2024-01-30T13:58:10;6.03;;;2.67;;
52554;SDS011;38455;52.710;6.502;2024-01-30T14:00:36;6.72;;;2.40;;
52554;SDS011;38455;52.710;6.502;2024-01-30T14:03:02;6.38;;;2.05;;
52554;SDS011;38455;52.710;6.502;2024-01-30T14:05:28;5.45;;;2.13;;
52554;SDS011;38455;52.710;6.502;2024-01-30T14:07:54;4.03;;;2.20;;
52554;SDS011;38455;52.710;6.502;2024-01-30T14:10:20;5.65;;;1.50;;
52554;SDS011;38455;52.710;6.502;2024-01-30T14:12:46;3.50;;;1.30;;
52554;SDS011;38455;52.710;6.502;2024-01-30T14:15:15;3.47;;;1.38;;
52554;SDS011;38455;52.710;6.502;2024-01-30T14:17:43;4.20;;;1.50;;
52554;SDS011;38455;52.710;6.502;2024-01-30T14:20:10;8.77;;;1.60;;
52554;SDS011;38455;52.710;6.502;2024-01-30T14:22:36;3.47;;;1.60;;
52554;SDS011;38455;52.710;6.502;2024-01-30T14:25:02;6.57;;;2.17;;
52554;SDS011;38455;52.710;6.502;2024-01-30T14:27:29;3.97;;;1.70;;